^^
Marion, Virginia Banner
 

Adwolf, VA. Station Historical Data
[ Providing Data Since 6/07/2007 ]
Station Historical Data
Daily Summary for July 16, 2017 Units:  Both    English   Metric
« Previous Day
Next Day »
Daily Weekly Monthly Yearly Custom
  High: Low: Average:
Temperature: 88.1 °F /  31.2 °C 57.4 °F /  14.1 °C 72.1 °F /  22.3 °C
Dew Point: 66.8 °F /  19.3 °C 51.8 °F /  11 °C 59.8 °F /  15.4 °C
Humidity: 95% 30% 70%
Wind Speed: 8.1mph /  13km/h - 2.3mph /  3.7km/h
Wind Gust: 8.1mph /  13km/h - -
Wind- - South
Pressure: 30.17 in /  1021.6 hPa 30.06 in /  1017.8 hPa -
Precipitation: 0.00 in /  0 mm    
Historical Graphs
 
 
Tabular Data for July 16, 2017
Time Temperature Dew Point Pressure Wind Wind Speed Wind Gust Humidity Rainfall Rate (Hourly) solar Conditions
00:03 64.3 °F /  17.9 °C 60.9 °F /  16.1 °C 30.14in /  1020.5hPa Calm     89% 0.00in /  0mm WeatherDisplay:10.37 W/m2 RA
00:08 64.1 °F /  17.8 °C 61.1 °F /  16.2 °C 30.14in /  1020.5hPa Calm     90% 0.00in /  0mm WeatherDisplay:10.37 W/m2 RA
00:13 63.9 °F /  17.7 °C 60.9 °F /  16.1 °C 30.14in /  1020.5hPa East 1.2mph /  1.9km/h   90% 0.00in /  0mm WeatherDisplay:10.37 W/m2 CLR
00:18 63.7 °F /  17.6 °C 60.7 °F /  15.9 °C 30.14in /  1020.5hPa Calm     90% 0.00in /  0mm WeatherDisplay:10.37 W/m2 CLR
00:23 63.6 °F /  17.6 °C 60.6 °F /  15.9 °C 30.14in /  1020.5hPa Calm     90% 0.00in /  0mm WeatherDisplay:10.37 W/m2 CLR
00:28 63.5 °F /  17.5 °C 60.8 °F /  16 °C 30.14in /  1020.5hPa Calm     91% 0.00in /  0mm WeatherDisplay:10.37 W/m2 CLR
00:33 63.4 °F /  17.4 °C 60.7 °F /  15.9 °C 30.14in /  1020.5hPa East 1.2mph /  1.9km/h 1.2mph /  1.9km/h 91% 0.00in /  0mm WeatherDisplay:10.37 W/m2 CLR
00:38 63.2 °F /  17.3 °C 60.5 °F /  15.8 °C 30.14in /  1020.5hPa East 1.2mph /  1.9km/h 1.2mph /  1.9km/h 91% 0.00in /  0mm WeatherDisplay:10.37 W/m2 CLR
00:43 63.1 °F /  17.3 °C 60.4 °F /  15.8 °C 30.14in /  1020.5hPa East 1.2mph /  1.9km/h   91% 0.00in /  0mm WeatherDisplay:10.37 W/m2 CLR
00:48 62.9 °F /  17.2 °C 60.2 °F /  15.7 °C 30.14in /  1020.5hPa East 1.2mph /  1.9km/h 1.2mph /  1.9km/h 91% 0.00in /  0mm WeatherDisplay:10.37 W/m2 CLR
00:49 62.8 °F /  17.1 °C 60.1 °F /  15.6 °C 30.14in /  1020.5hPa East 1.2mph /  1.9km/h 1.2mph /  1.9km/h 91% 0.00in /  0mm WeatherDisplay:10.37 W/m2 CLR
00:54 62.7 °F /  17.1 °C 60.0 °F /  15.6 °C 30.14in /  1020.5hPa East 1.2mph /  1.9km/h 1.2mph /  1.9km/h 91% 0.00in /  0mm WeatherDisplay:10.37 W/m2 CLR
00:59 62.6 °F /  17 °C 59.9 °F /  15.5 °C 30.14in /  1020.5hPa Calm     91% 0.00in /  0mm WeatherDisplay:10.37 W/m2 CLR
01:04 62.5 °F /  16.9 °C 60.1 °F /  15.6 °C 30.14in /  1020.5hPa East 1.2mph /  1.9km/h   92% 0.00in /  0mm WeatherDisplay:10.37 W/m2 CLR
01:09 62.4 °F /  16.9 °C 60.0 °F /  15.6 °C 30.14in /  1020.5hPa East 1.2mph /  1.9km/h 1.2mph /  1.9km/h 92% 0.00in /  0mm WeatherDisplay:10.37 W/m2 CLR
01:14 62.2 °F /  16.8 °C 59.8 °F /  15.4 °C 30.14in /  1020.5hPa East 1.2mph /  1.9km/h 1.2mph /  1.9km/h 92% 0.00in /  0mm WeatherDisplay:10.37 W/m2 CLR
01:19 62.1 °F /  16.7 °C 59.7 °F /  15.4 °C 30.14in /  1020.5hPa East 1.2mph /  1.9km/h 1.2mph /  1.9km/h 92% 0.00in /  0mm WeatherDisplay:10.37 W/m2 CLR
01:24 62.1 °F /  16.7 °C 59.7 °F /  15.4 °C 30.14in /  1020.5hPa East 1.2mph /  1.9km/h 1.2mph /  1.9km/h 92% 0.00in /  0mm WeatherDisplay:10.37 W/m2 CLR
01:29 62.0 °F /  16.7 °C 59.6 °F /  15.3 °C 30.14in /  1020.5hPa East 1.2mph /  1.9km/h 1.2mph /  1.9km/h 92% 0.00in /  0mm WeatherDisplay:10.37 W/m2 CLR
01:34 61.9 °F /  16.6 °C 59.5 °F /  15.3 °C 30.14in /  1020.5hPa Calm     92% 0.00in /  0mm WeatherDisplay:10.37 W/m2 CLR
01:39 61.8 °F /  16.6 °C 59.4 °F /  15.2 °C 30.14in /  1020.5hPa Calm     92% 0.00in /  0mm WeatherDisplay:10.37 W/m2 CLR
01:44 61.7 °F /  16.5 °C 59.3 °F /  15.2 °C 30.14in /  1020.5hPa Calm     92% 0.00in /  0mm WeatherDisplay:10.37 W/m2 CLR
01:49 61.8 °F /  16.6 °C 59.4 °F /  15.2 °C 30.15in /  1020.9hPa Calm     92% 0.00in /  0mm WeatherDisplay:10.37 W/m2 CLR
01:54 61.7 °F /  16.5 °C 59.3 °F /  15.2 °C 30.15in /  1020.9hPa Calm     92% 0.00in /  0mm WeatherDisplay:10.37 W/m2 CLR
01:59 61.7 °F /  16.5 °C 59.6 °F /  15.3 °C 30.15in /  1020.9hPa Calm     93% 0.00in /  0mm WeatherDisplay:10.37 W/m2 CLR
02:04 61.8 °F /  16.6 °C 59.7 °F /  15.4 °C 30.15in /  1020.9hPa East 2.3mph /  3.7km/h 2.3mph /  3.7km/h 93% 0.00in /  0mm WeatherDisplay:10.37 W/m2 CLR
02:09 61.9 °F /  16.6 °C 59.8 °F /  15.4 °C 30.14in /  1020.5hPa East 1.2mph /  1.9km/h 1.2mph /  1.9km/h 93% 0.00in /  0mm WeatherDisplay:10.37 W/m2 CLR
02:14 62.0 °F /  16.7 °C 59.9 °F /  15.5 °C 30.14in /  1020.5hPa East 1.2mph /  1.9km/h 1.2mph /  1.9km/h 93% 0.00in /  0mm WeatherDisplay:10.37 W/m2 CLR
02:19 62.0 °F /  16.7 °C 59.9 °F /  15.5 °C 30.14in /  1020.5hPa East 2.3mph /  3.7km/h 2.3mph /  3.7km/h 93% 0.00in /  0mm WeatherDisplay:10.37 W/m2 CLR
02:24 61.9 °F /  16.6 °C 59.8 °F /  15.4 °C 30.14in /  1020.5hPa East 3.0mph /  4.8km/h 3.0mph /  4.8km/h 93% 0.00in /  0mm WeatherDisplay:10.37 W/m2 CLR
02:29 61.9 °F /  16.6 °C 59.8 °F /  15.4 °C 30.14in /  1020.5hPa East 2.3mph /  3.7km/h 2.3mph /  3.7km/h 93% 0.00in /  0mm WeatherDisplay:10.37 W/m2 CLR
02:34 61.8 °F /  16.6 °C 59.7 °F /  15.4 °C 30.13in /  1020.2hPa East 1.2mph /  1.9km/h 1.2mph /  1.9km/h 93% 0.00in /  0mm WeatherDisplay:10.37 W/m2 CLR
02:39 61.7 °F /  16.5 °C 59.3 °F /  15.2 °C 30.13in /  1020.2hPa East 2.3mph /  3.7km/h 2.3mph /  3.7km/h 92% 0.00in /  0mm WeatherDisplay:10.37 W/m2 CLR
02:44 61.7 °F /  16.5 °C 59.3 °F /  15.2 °C 30.14in /  1020.5hPa East 1.2mph /  1.9km/h 1.2mph /  1.9km/h 92% 0.00in /  0mm WeatherDisplay:10.37 W/m2 CLR
02:49 61.6 °F /  16.4 °C 59.2 °F /  15.1 °C 30.14in /  1020.5hPa East 2.3mph /  3.7km/h 2.3mph /  3.7km/h 92% 0.00in /  0mm WeatherDisplay:10.37 W/m2 CLR
02:54 61.5 °F /  16.4 °C 59.1 °F /  15.1 °C 30.14in /  1020.5hPa Calm     92% 0.00in /  0mm WeatherDisplay:10.37 W/m2 CLR
02:59 61.3 °F /  16.3 °C 58.9 °F /  14.9 °C 30.14in /  1020.5hPa Calm     92% 0.00in /  0mm WeatherDisplay:10.37 W/m2 CLR
03:04 61.2 °F /  16.2 °C 59.1 °F /  15.1 °C 30.13in /  1020.2hPa Calm     93% 0.00in /  0mm WeatherDisplay:10.37 W/m2 CLR
03:09 60.9 °F /  16.1 °C 58.5 °F /  14.7 °C 30.13in /  1020.2hPa Calm     92% 0.00in /  0mm WeatherDisplay:10.37 W/m2 CLR
03:14 60.8 °F /  16 °C 58.7 °F /  14.8 °C 30.13in /  1020.2hPa East 1.2mph /  1.9km/h 1.2mph /  1.9km/h 93% 0.00in /  0mm WeatherDisplay:10.37 W/m2 CLR
03:19 60.7 °F /  15.9 °C 58.6 °F /  14.8 °C 30.13in /  1020.2hPa East 1.2mph /  1.9km/h   93% 0.00in /  0mm WeatherDisplay:10.37 W/m2 CLR
03:24 60.6 °F /  15.9 °C 58.5 °F /  14.7 °C 30.13in /  1020.2hPa Calm     93% 0.00in /  0mm WeatherDisplay:10.37 W/m2 CLR
03:29 60.5 °F /  15.8 °C 58.4 °F /  14.7 °C 30.13in /  1020.2hPa Calm     93% 0.00in /  0mm WeatherDisplay:10.37 W/m2 CLR
03:34 60.3 °F /  15.7 °C 58.2 °F /  14.6 °C 30.13in /  1020.2hPa Calm     93% 0.00in /  0mm WeatherDisplay:10.37 W/m2 CLR
03:39 60.1 °F /  15.6 °C 58.0 °F /  14.4 °C 30.13in /  1020.2hPa Calm     93% 0.00in /  0mm WeatherDisplay:10.37 W/m2 CLR
03:44 59.9 °F /  15.5 °C 57.8 °F /  14.3 °C 30.13in /  1020.2hPa Calm     93% 0.00in /  0mm WeatherDisplay:10.37 W/m2 CLR
03:49 59.9 °F /  15.5 °C 57.8 °F /  14.3 °C 30.13in /  1020.2hPa Calm     93% 0.00in /  0mm WeatherDisplay:10.37 W/m2 CLR
03:54 59.7 °F /  15.4 °C 57.6 °F /  14.2 °C 30.13in /  1020.2hPa Calm     93% 0.00in /  0mm WeatherDisplay:10.37 W/m2 CLR
03:59 59.6 °F /  15.3 °C 57.5 °F /  14.2 °C 30.13in /  1020.2hPa Calm     93% 0.00in /  0mm WeatherDisplay:10.37 W/m2 CLR
04:04 59.5 °F /  15.3 °C 57.4 °F /  14.1 °C 30.13in /  1020.2hPa Calm     93% 0.00in /  0mm WeatherDisplay:10.37 W/m2 CLR
04:09 59.3 °F /  15.2 °C 57.2 °F /  14 °C 30.13in /  1020.2hPa East 1.2mph /  1.9km/h 1.2mph /  1.9km/h 93% 0.00in /  0mm WeatherDisplay:10.37 W/m2 CLR
04:14 59.1 °F /  15.1 °C 57.0 °F /  13.9 °C 30.13in /  1020.2hPa East 1.0mph /  1.6km/h 1.0mph /  1.6km/h 93% 0.00in /  0mm WeatherDisplay:10.37 W/m2 CLR
04:19 59.1 °F /  15.1 °C 57.0 °F /  13.9 °C 30.12in /  1019.9hPa East 1.2mph /  1.9km/h 1.2mph /  1.9km/h 93% 0.00in /  0mm WeatherDisplay:10.37 W/m2 CLR
04:24 59.2 °F /  15.1 °C 57.1 °F /  13.9 °C 30.13in /  1020.2hPa East 1.2mph /  1.9km/h   93% 0.00in /  0mm WeatherDisplay:10.37 W/m2 CLR
04:29 59.2 °F /  15.1 °C 57.4 °F /  14.1 °C 30.13in /  1020.2hPa Calm     94% 0.00in /  0mm WeatherDisplay:10.37 W/m2 CLR
04:34 59.3 °F /  15.2 °C 57.5 °F /  14.2 °C 30.13in /  1020.2hPa Calm     94% 0.00in /  0mm WeatherDisplay:10.37 W/m2 CLR
04:39 59.4 °F /  15.2 °C 57.6 °F /  14.2 °C 30.13in /  1020.2hPa Calm     94% 0.00in /  0mm WeatherDisplay:10.37 W/m2 CLR
04:44 59.4 °F /  15.2 °C 57.6 °F /  14.2 °C 30.14in /  1020.5hPa Calm     94% 0.00in /  0mm WeatherDisplay:10.37 W/m2 CLR
04:49 59.4 °F /  15.2 °C 57.6 °F /  14.2 °C 30.14in /  1020.5hPa Calm     94% 0.00in /  0mm WeatherDisplay:10.37 W/m2 CLR
04:54 59.4 °F /  15.2 °C 57.6 °F /  14.2 °C 30.14in /  1020.5hPa Calm     94% 0.00in /  0mm WeatherDisplay:10.37 W/m2 CLR
04:59 59.3 °F /  15.2 °C 57.2 °F /  14 °C 30.14in /  1020.5hPa Calm     93% 0.00in /  0mm WeatherDisplay:10.37 W/m2 CLR
05:04 59.1 °F /  15.1 °C 57.0 °F /  13.9 °C 30.13in /  1020.2hPa Calm     93% 0.00in /  0mm WeatherDisplay:10.37 W/m2 CLR
05:09 59.0 °F /  15 °C 56.9 °F /  13.8 °C 30.14in /  1020.5hPa Calm     93% 0.00in /  0mm WeatherDisplay:10.37 W/m2 CLR
05:14 58.9 °F /  14.9 °C 56.8 °F /  13.8 °C 30.14in /  1020.5hPa Calm     93% 0.00in /  0mm WeatherDisplay:10.37 W/m2 CLR
05:19 58.8 °F /  14.9 °C 57.0 °F /  13.9 °C 30.14in /  1020.5hPa Calm     94% 0.00in /  0mm WeatherDisplay:10.37 W/m2 CLR
05:24 58.7 °F /  14.8 °C 56.6 °F /  13.7 °C 30.14in /  1020.5hPa Calm     93% 0.00in /  0mm WeatherDisplay:10.37 W/m2 CLR
05:29 58.6 °F /  14.8 °C 56.5 °F /  13.6 °C 30.14in /  1020.5hPa Calm     93% 0.00in /  0mm WeatherDisplay:10.37 W/m2 CLR
05:34 58.4 °F /  14.7 °C 56.3 °F /  13.5 °C 30.15in /  1020.9hPa Calm     93% 0.00in /  0mm WeatherDisplay:10.37 W/m2 CLR
05:39 58.3 °F /  14.6 °C 56.2 °F /  13.4 °C 30.14in /  1020.5hPa Calm     93% 0.00in /  0mm WeatherDisplay:10.37 W/m2 CLR
05:44 58.2 °F /  14.6 °C 56.1 °F /  13.4 °C 30.14in /  1020.5hPa Calm     93% 0.00in /  0mm WeatherDisplay:10.37 W/m2 CLR
05:49 58.2 °F /  14.6 °C 56.4 °F /  13.6 °C 30.15in /  1020.9hPa Calm     94% 0.00in /  0mm WeatherDisplay:10.37 W/m2 CLR
05:54 58.2 °F /  14.6 °C 56.4 °F /  13.6 °C 30.15in /  1020.9hPa Calm     94% 0.00in /  0mm WeatherDisplay:10.37 W/m2 CLR
05:59 58.2 °F /  14.6 °C 56.4 °F /  13.6 °C 30.15in /  1020.9hPa Calm     94% 0.00in /  0mm WeatherDisplay:10.37 W/m2 CLR
06:04 58.2 °F /  14.6 °C 56.4 °F /  13.6 °C 30.15in /  1020.9hPa Calm     94% 0.00in /  0mm WeatherDisplay:10.37 W/m2 SCT
06:09 58.2 °F /  14.6 °C 56.4 °F /  13.6 °C 30.15in /  1020.9hPa Calm     94% 0.00in /  0mm WeatherDisplay:10.37 W/m2 SCT
06:14 58.1 °F /  14.5 °C 56.3 °F /  13.5 °C 30.15in /  1020.9hPa Calm     94% 0.00in /  0mm WeatherDisplay:10.37 W/m2 SCT
06:19 58.1 °F /  14.5 °C 56.3 °F /  13.5 °C 30.15in /  1020.9hPa Calm     94% 0.00in /  0mm WeatherDisplay:10.37 W/m2 SCT
06:24 58.0 °F /  14.4 °C 56.2 °F /  13.4 °C 30.15in /  1020.9hPa Calm     94% 0.00in /  0mm WeatherDisplay:10.37 W/m2 SCT
06:29 57.8 °F /  14.3 °C 55.7 °F /  13.2 °C 30.15in /  1020.9hPa Calm     93% 0.00in /  0mm WeatherDisplay:10.37 W/m2 SCT
06:34 57.7 °F /  14.3 °C 55.9 °F /  13.3 °C 30.15in /  1020.9hPa Calm     94% 0.00in /  0mm WeatherDisplay:10.37 W/m2 SCT
06:39 57.6 °F /  14.2 °C 55.8 °F /  13.2 °C 30.15in /  1020.9hPa Calm     94% 0.00in /  0mm WeatherDisplay:10.37 W/m2 SCT
06:44 57.5 °F /  14.2 °C 55.7 °F /  13.2 °C 30.15in /  1020.9hPa Calm     94% 0.00in /  0mm WeatherDisplay:10.37 W/m2 CLR
06:49 57.4 °F /  14.1 °C 55.6 °F /  13.1 °C 30.16in /  1021.2hPa Calm     94% 0.00in /  0mm WeatherDisplay:10.37 W/m2 CLR
06:54 57.5 °F /  14.2 °C 55.7 °F /  13.2 °C 30.16in /  1021.2hPa Calm     94% 0.00in /  0mm WeatherDisplay:10.37 W/m2 CLR
06:59 57.6 °F /  14.2 °C 55.8 °F /  13.2 °C 30.16in /  1021.2hPa Calm     94% 0.00in /  0mm WeatherDisplay:10.37 W/m2 CLR
07:04 57.7 °F /  14.3 °C 55.9 °F /  13.3 °C 30.16in /  1021.2hPa Calm     94% 0.00in /  0mm WeatherDisplay:10.37 W/m2 SCT
07:09 57.9 °F /  14.4 °C 56.1 °F /  13.4 °C 30.16in /  1021.2hPa Calm   0.3mph /  0.5km/h 94% 0.00in /  0mm WeatherDisplay:10.37 W/m2 SCT
07:14 58.2 °F /  14.6 °C 56.4 °F /  13.6 °C 30.16in /  1021.2hPa Calm     94% 0.00in /  0mm WeatherDisplay:10.37 W/m2 SCT
07:19 58.5 °F /  14.7 °C 57.0 °F /  13.9 °C 30.16in /  1021.2hPa Calm     95% 0.00in /  0mm WeatherDisplay:10.37 W/m2 SCT
07:24 58.8 °F /  14.9 °C 57.3 °F /  14.1 °C 30.16in /  1021.2hPa Calm     95% 0.00in /  0mm WeatherDisplay:10.37 W/m2 SCT
07:29 59.0 °F /  15 °C 57.2 °F /  14 °C 30.16in /  1021.2hPa NNE 2.3mph /  3.7km/h 2.3mph /  3.7km/h 94% 0.00in /  0mm WeatherDisplay:10.37 W/m2 SCT
07:34 59.2 °F /  15.1 °C 57.4 °F /  14.1 °C 30.17in /  1021.6hPa NNE 2.3mph /  3.7km/h 2.3mph /  3.7km/h 94% 0.00in /  0mm WeatherDisplay:10.37 W/m2 SCT
07:39 59.3 °F /  15.2 °C 57.5 °F /  14.2 °C 30.16in /  1021.2hPa NNE 2.3mph /  3.7km/h 2.3mph /  3.7km/h 94% 0.00in /  0mm WeatherDisplay:10.37 W/m2 SCT
07:44 59.6 °F /  15.3 °C 57.8 °F /  14.3 °C 30.16in /  1021.2hPa NNE 2.3mph /  3.7km/h 2.3mph /  3.7km/h 94% 0.00in /  0mm WeatherDisplay:10.37 W/m2 CLR
07:49 59.9 °F /  15.5 °C 58.1 °F /  14.5 °C 30.16in /  1021.2hPa NNE 3.5mph /  5.6km/h 3.5mph /  5.6km/h 94% 0.00in /  0mm WeatherDisplay:10.37 W/m2 CLR
07:54 60.2 °F /  15.7 °C 58.4 °F /  14.7 °C 30.16in /  1021.2hPa NNE 2.3mph /  3.7km/h 2.3mph /  3.7km/h 94% 0.00in /  0mm WeatherDisplay:10.37 W/m2 CLR
07:59 60.6 °F /  15.9 °C 58.8 °F /  14.9 °C 30.16in /  1021.2hPa NNE 1.2mph /  1.9km/h 1.2mph /  1.9km/h 94% 0.00in /  0mm WeatherDisplay:10.37 W/m2 CLR
08:04 61.1 °F /  16.2 °C 59.3 °F /  15.2 °C 30.16in /  1021.2hPa NNE 3.5mph /  5.6km/h 3.5mph /  5.6km/h 94% 0.00in /  0mm WeatherDisplay:10.37 W/m2 CLR
08:09 61.4 °F /  16.3 °C 59.3 °F /  15.2 °C 30.16in /  1021.2hPa NNE 2.3mph /  3.7km/h 2.3mph /  3.7km/h 93% 0.00in /  0mm WeatherDisplay:10.37 W/m2 CLR
08:14 61.8 °F /  16.6 °C 59.7 °F /  15.4 °C 30.16in /  1021.2hPa NNE 2.3mph /  3.7km/h 2.3mph /  3.7km/h 93% 0.00in /  0mm WeatherDisplay:10.37 W/m2 CLR
08:19 62.5 °F /  16.9 °C 60.4 °F /  15.8 °C 30.16in /  1021.2hPa NNE 2.0mph /  3.2km/h 2.0mph /  3.2km/h 93% 0.00in /  0mm WeatherDisplay:10.37 W/m2 CLR
08:24 63.1 °F /  17.3 °C 60.7 °F /  15.9 °C 30.16in /  1021.2hPa NNE 2.3mph /  3.7km/h 2.3mph /  3.7km/h 92% 0.00in /  0mm WeatherDisplay:10.37 W/m2 CLR
08:29 63.6 °F /  17.6 °C 61.2 °F /  16.2 °C 30.16in /  1021.2hPa NNE 3.5mph /  5.6km/h 3.5mph /  5.6km/h 92% 0.00in /  0mm WeatherDisplay:10.37 W/m2 CLR
08:34 64.1 °F /  17.8 °C 61.4 °F /  16.3 °C 30.15in /  1020.9hPa ENE 3.5mph /  5.6km/h 3.5mph /  5.6km/h 91% 0.00in /  0mm WeatherDisplay:10.37 W/m2 CLR
08:39 64.8 °F /  18.2 °C 61.8 °F /  16.6 °C 30.15in /  1020.9hPa ENE 3.5mph /  5.6km/h 3.5mph /  5.6km/h 90% 0.00in /  0mm WeatherDisplay:10.37 W/m2 CLR
08:44 65.5 °F /  18.6 °C 62.4 °F /  16.9 °C 30.15in /  1020.9hPa NE 3.5mph /  5.6km/h 3.5mph /  5.6km/h 90% 0.00in /  0mm WeatherDisplay:10.37 W/m2 CLR
08:49 66.0 °F /  18.9 °C 62.6 °F /  17 °C 30.15in /  1020.9hPa NE 3.5mph /  5.6km/h 3.5mph /  5.6km/h 89% 0.00in /  0mm WeatherDisplay:10.37 W/m2 CLR
08:54 66.6 °F /  19.2 °C 62.9 °F /  17.2 °C 30.16in /  1021.2hPa NE 2.3mph /  3.7km/h 2.3mph /  3.7km/h 88% 0.00in /  0mm WeatherDisplay:10.37 W/m2 CLR
08:59 67.1 °F /  19.5 °C 63.1 °F /  17.3 °C 30.16in /  1021.2hPa NE 1.2mph /  1.9km/h   87% 0.00in /  0mm WeatherDisplay:10.37 W/m2 CLR
09:04 67.5 °F /  19.7 °C 63.5 °F /  17.5 °C 30.16in /  1021.2hPa NE 2.3mph /  3.7km/h 2.3mph /  3.7km/h 87% 0.00in /  0mm WeatherDisplay:10.37 W/m2 CLR
09:09 67.9 °F /  19.9 °C 64.2 °F /  17.9 °C 30.16in /  1021.2hPa NE 2.3mph /  3.7km/h 2.3mph /  3.7km/h 88% 0.00in /  0mm WeatherDisplay:10.37 W/m2 CLR
09:14 68.3 °F /  20.2 °C 64.2 °F /  17.9 °C 30.15in /  1020.9hPa NE 2.3mph /  3.7km/h 2.3mph /  3.7km/h 87% 0.00in /  0mm WeatherDisplay:10.37 W/m2 CLR
09:19 68.7 °F /  20.4 °C 64.3 °F /  17.9 °C 30.15in /  1020.9hPa NE 2.3mph /  3.7km/h 2.3mph /  3.7km/h 86% 0.00in /  0mm WeatherDisplay:10.37 W/m2 CLR
09:24 69.1 °F /  20.6 °C 64.0 °F /  17.8 °C 30.15in /  1020.9hPa NE 3.5mph /  5.6km/h 3.5mph /  5.6km/h 84% 0.00in /  0mm WeatherDisplay:10.37 W/m2 CLR
09:29 69.5 °F /  20.8 °C 64.8 °F /  18.2 °C 30.15in /  1020.9hPa NE 3.5mph /  5.6km/h 3.5mph /  5.6km/h 85% 0.00in /  0mm WeatherDisplay:10.37 W/m2 CLR
09:34 69.9 °F /  21.1 °C 64.5 °F /  18.1 °C 30.15in /  1020.9hPa NE 2.3mph /  3.7km/h 2.3mph /  3.7km/h 83% 0.00in /  0mm WeatherDisplay:10.37 W/m2 CLR
09:39 70.4 °F /  21.3 °C 64.9 °F /  18.3 °C 30.15in /  1020.9hPa NE 3.5mph /  5.6km/h 3.5mph /  5.6km/h 83% 0.00in /  0mm WeatherDisplay:10.37 W/m2 CLR
09:44 71.1 °F /  21.7 °C 65.6 °F /  18.7 °C 30.15in /  1020.9hPa NE 3.5mph /  5.6km/h 3.5mph /  5.6km/h 83% 0.00in /  0mm WeatherDisplay:10.37 W/m2 CLR
09:49 71.8 °F /  22.1 °C 65.6 °F /  18.7 °C 30.15in /  1020.9hPa NE 2.3mph /  3.7km/h 2.3mph /  3.7km/h 81% 0.00in /  0mm WeatherDisplay:10.37 W/m2 CLR
09:54 72.6 °F /  22.6 °C 66.0 °F /  18.9 °C 30.15in /  1020.9hPa Calm     80% 0.00in /  0mm WeatherDisplay:10.37 W/m2 CLR
09:59 73.4 °F /  23 °C 66.8 °F /  19.3 °C 30.15in /  1020.9hPa NE 2.0mph /  3.2km/h 2.0mph /  3.2km/h 80% 0.00in /  0mm WeatherDisplay:10.37 W/m2 CLR
10:04 74.4 °F /  23.6 °C 64.7 °F /  18.2 °C 30.14in /  1020.5hPa North 3.5mph /  5.6km/h 3.5mph /  5.6km/h 72% 0.00in /  0mm WeatherDisplay:10.37 W/m2 SCT
10:09 74.8 °F /  23.8 °C 65.1 °F /  18.4 °C 30.15in /  1020.9hPa North 3.5mph /  5.6km/h 3.5mph /  5.6km/h 72% 0.00in /  0mm WeatherDisplay:10.37 W/m2 SCT
10:14 75.4 °F /  24.1 °C 63.6 °F /  17.6 °C 30.15in /  1020.9hPa North 2.3mph /  3.7km/h 2.3mph /  3.7km/h 67% 0.00in /  0mm WeatherDisplay:10.37 W/m2 SCT
10:19 75.8 °F /  24.3 °C 63.6 °F /  17.6 °C 30.14in /  1020.5hPa North 3.0mph /  4.8km/h 3.0mph /  4.8km/h 66% 0.00in /  0mm WeatherDisplay:10.37 W/m2 SCT
10:24 76.1 °F /  24.5 °C 63.4 °F /  17.4 °C 30.14in /  1020.5hPa North 3.5mph /  5.6km/h 3.5mph /  5.6km/h 65% 0.00in /  0mm WeatherDisplay:10.37 W/m2 BKN
10:29 76.2 °F /  24.6 °C 63.5 °F /  17.5 °C 30.14in /  1020.5hPa North 3.5mph /  5.6km/h 3.5mph /  5.6km/h 65% 0.00in /  0mm WeatherDisplay:10.37 W/m2 BKN
10:34 76.6 °F /  24.8 °C 65.2 °F /  18.4 °C 30.14in /  1020.5hPa North 2.3mph /  3.7km/h 2.3mph /  3.7km/h 68% 0.00in /  0mm WeatherDisplay:10.37 W/m2 BKN
10:39 77.1 °F /  25.1 °C 63.9 °F /  17.7 °C 30.14in /  1020.5hPa North 3.0mph /  4.8km/h 3.0mph /  4.8km/h 64% 0.00in /  0mm WeatherDisplay:10.37 W/m2 BKN
10:44 77.4 °F /  25.2 °C 59.9 °F /  15.5 °C 30.14in /  1020.5hPa SSE 4.6mph /  7.4km/h 4.6mph /  7.4km/h 55% 0.00in /  0mm WeatherDisplay:10.37 W/m2 BKN
10:49 77.5 °F /  25.3 °C 62.0 °F /  16.7 °C 30.14in /  1020.5hPa WSW 3.5mph /  5.6km/h 3.5mph /  5.6km/h 59% 0.00in /  0mm WeatherDisplay:10.37 W/m2 BKN
10:54 77.5 °F /  25.3 °C 61.5 °F /  16.4 °C 30.14in /  1020.5hPa South 3.5mph /  5.6km/h 3.5mph /  5.6km/h 58% 0.00in /  0mm WeatherDisplay:10.37 W/m2 BKN
10:59 77.8 °F /  25.4 °C 61.8 °F /  16.6 °C 30.14in /  1020.5hPa WSW 4.6mph /  7.4km/h 4.6mph /  7.4km/h 58% 0.00in /  0mm WeatherDisplay:10.37 W/m2 BKN
11:04 77.7 °F /  25.4 °C 61.7 °F /  16.5 °C 30.14in /  1020.5hPa West 3.5mph /  5.6km/h 3.5mph /  5.6km/h 58% 0.00in /  0mm WeatherDisplay:10.37 W/m2 SCT
11:09 77.8 °F /  25.4 °C 59.3 °F /  15.2 °C 30.14in /  1020.5hPa WNW 3.5mph /  5.6km/h 3.5mph /  5.6km/h 53% 0.00in /  0mm WeatherDisplay:10.37 W/m2 SCT
11:14 78.5 °F /  25.8 °C 63.4 °F /  17.4 °C 30.14in /  1020.5hPa SSE 4.6mph /  7.4km/h 4.6mph /  7.4km/h 60% 0.00in /  0mm WeatherDisplay:10.37 W/m2 SCT
11:19 78.8 °F /  26 °C 61.7 °F /  16.5 °C 30.14in /  1020.5hPa South 4.6mph /  7.4km/h 4.6mph /  7.4km/h 56% 0.00in /  0mm WeatherDisplay:10.37 W/m2 SCT
11:24 79.0 °F /  26.1 °C 61.9 °F /  16.6 °C 30.14in /  1020.5hPa SSW 4.6mph /  7.4km/h 4.6mph /  7.4km/h 56% 0.00in /  0mm WeatherDisplay:10.37 W/m2 SCT
11:29 78.8 °F /  26 °C 58.6 °F /  14.8 °C 30.14in /  1020.5hPa West 3.5mph /  5.6km/h 3.5mph /  5.6km/h 50% 0.00in /  0mm WeatherDisplay:10.37 W/m2 SCT
11:34 79.0 °F /  26.1 °C 58.2 °F /  14.6 °C 30.14in /  1020.5hPa North 3.5mph /  5.6km/h 3.5mph /  5.6km/h 49% 0.00in /  0mm WeatherDisplay:10.37 W/m2 SCT
11:39 79.2 °F /  26.2 °C 59.5 °F /  15.3 °C 30.14in /  1020.5hPa NE 3.5mph /  5.6km/h 3.5mph /  5.6km/h 51% 0.00in /  0mm WeatherDisplay:10.37 W/m2 SCT
11:44 79.6 °F /  26.4 °C 60.9 °F /  16.1 °C 30.14in /  1020.5hPa SSW 5.0mph /  8km/h 5.0mph /  8km/h 53% 0.00in /  0mm WeatherDisplay:10.37 W/m2 SCT
11:54 79.0 °F /  26.1 °C 59.3 °F /  15.2 °C 30.14in /  1020.5hPa West 3.5mph /  5.6km/h 3.5mph /  5.6km/h 51% 0.00in /  0mm WeatherDisplay:10.37 W/m2 SCT
11:59 79.2 °F /  26.2 °C 60.6 °F /  15.9 °C 30.14in /  1020.5hPa WNW 3.5mph /  5.6km/h 3.5mph /  5.6km/h 53% 0.00in /  0mm WeatherDisplay:10.37 W/m2 SCT
12:04 79.4 °F /  26.3 °C 62.3 °F /  16.8 °C 30.14in /  1020.5hPa WSW 4.6mph /  7.4km/h 4.6mph /  7.4km/h 56% 0.00in /  0mm WeatherDisplay:10.37 W/m2 SCT
12:09 79.6 °F /  26.4 °C 59.3 °F /  15.2 °C 30.14in /  1020.5hPa South 3.5mph /  5.6km/h 3.5mph /  5.6km/h 50% 0.00in /  0mm WeatherDisplay:10.37 W/m2 SCT
12:14 80.3 °F /  26.8 °C 61.0 °F /  16.1 °C 30.14in /  1020.5hPa SSW 5.8mph /  9.3km/h 5.8mph /  9.3km/h 52% 0.00in /  0mm WeatherDisplay:10.37 W/m2 SCT
12:19 80.5 °F /  26.9 °C 61.8 °F /  16.6 °C 30.13in /  1020.2hPa SW 6.9mph /  11.1km/h 6.9mph /  11.1km/h 53% 0.00in /  0mm WeatherDisplay:10.37 W/m2 SCT
12:24 80.8 °F /  27.1 °C 62.0 °F /  16.7 °C 30.13in /  1020.2hPa West 2.3mph /  3.7km/h 2.3mph /  3.7km/h 53% 0.00in /  0mm WeatherDisplay:10.37 W/m2 SCT
12:29 81.3 °F /  27.4 °C 61.4 °F /  16.3 °C 30.13in /  1020.2hPa North 3.5mph /  5.6km/h 3.5mph /  5.6km/h 51% 0.00in /  0mm WeatherDisplay:10.37 W/m2 SCT
12:34 81.5 °F /  27.5 °C 60.5 °F /  15.8 °C 30.13in /  1020.2hPa SSE 8.1mph /  13km/h 8.1mph /  13km/h 49% 0.00in /  0mm WeatherDisplay:10.37 W/m2 SCT
12:39 81.1 °F /  27.3 °C 60.7 °F /  15.9 °C 30.13in /  1020.2hPa SW 8.1mph /  13km/h 8.1mph /  13km/h 50% 0.00in /  0mm WeatherDisplay:10.37 W/m2 SCT
12:44 80.6 °F /  27 °C 60.8 °F /  16 °C 30.13in /  1020.2hPa SSW 6.9mph /  11.1km/h 6.9mph /  11.1km/h 51% 0.00in /  0mm WeatherDisplay:10.37 W/m2 SCT
12:49 81.0 °F /  27.2 °C 62.7 °F /  17.1 °C 30.13in /  1020.2hPa SSW 8.1mph /  13km/h 8.1mph /  13km/h 54% 0.00in /  0mm WeatherDisplay:10.37 W/m2 SCT
12:54 81.5 °F /  27.5 °C 61.6 °F /  16.4 °C 30.13in /  1020.2hPa South 6.9mph /  11.1km/h 6.9mph /  11.1km/h 51% 0.00in /  0mm WeatherDisplay:10.37 W/m2 SCT
12:59 81.8 °F /  27.7 °C 60.7 °F /  15.9 °C 30.13in /  1020.2hPa South 8.1mph /  13km/h 8.1mph /  13km/h 49% 0.00in /  0mm WeatherDisplay:10.37 W/m2 SCT
13:04 81.5 °F /  27.5 °C 61.0 °F /  16.1 °C 30.13in /  1020.2hPa SW 6.9mph /  11.1km/h 6.9mph /  11.1km/h 50% 0.00in /  0mm WeatherDisplay:10.37 W/m2 SCT
13:09 81.2 °F /  27.3 °C 61.9 °F /  16.6 °C 30.13in /  1020.2hPa SW 4.6mph /  7.4km/h 4.6mph /  7.4km/h 52% 0.00in /  0mm WeatherDisplay:10.37 W/m2 SCT
13:14 81.4 °F /  27.4 °C 61.5 °F /  16.4 °C 30.13in /  1020.2hPa WSW 4.6mph /  7.4km/h 4.6mph /  7.4km/h 51% 0.00in /  0mm WeatherDisplay:10.37 W/m2 SCT
13:19 81.6 °F /  27.6 °C 61.1 °F /  16.2 °C 30.13in /  1020.2hPa SW 6.9mph /  11.1km/h 6.9mph /  11.1km/h 50% 0.00in /  0mm WeatherDisplay:10.37 W/m2 SCT
13:24 81.6 °F /  27.6 °C 61.7 °F /  16.5 °C 30.13in /  1020.2hPa SW 6.9mph /  11.1km/h 6.9mph /  11.1km/h 51% 0.00in /  0mm WeatherDisplay:10.37 W/m2 SCT
13:29 82.4 °F /  28 °C 60.7 °F /  15.9 °C 30.13in /  1020.2hPa West 8.1mph /  13km/h 8.1mph /  13km/h 48% 0.00in /  0mm WeatherDisplay:10.37 W/m2 SCT
13:34 82.9 °F /  28.3 °C 61.2 °F /  16.2 °C 30.13in /  1020.2hPa SW 6.9mph /  11.1km/h 6.9mph /  11.1km/h 48% 0.00in /  0mm WeatherDisplay:10.37 W/m2 SCT
13:39 82.7 °F /  28.2 °C 61.0 °F /  16.1 °C 30.13in /  1020.2hPa SW 6.9mph /  11.1km/h 6.9mph /  11.1km/h 48% 0.00in /  0mm WeatherDisplay:10.37 W/m2 SCT
13:44 82.9 °F /  28.3 °C 60.6 °F /  15.9 °C 30.12in /  1019.9hPa West 6.0mph /  9.7km/h 6.0mph /  9.7km/h 47% 0.00in /  0mm WeatherDisplay:10.37 W/m2 SCT
13:49 83.0 °F /  28.3 °C 60.7 °F /  15.9 °C 30.12in /  1019.9hPa West 4.6mph /  7.4km/h 4.6mph /  7.4km/h 47% 0.00in /  0mm WeatherDisplay:10.37 W/m2 SCT
13:54 82.8 °F /  28.2 °C 58.6 °F /  14.8 °C 30.12in /  1019.9hPa SW 3.5mph /  5.6km/h 3.5mph /  5.6km/h 44% 0.00in /  0mm WeatherDisplay:10.37 W/m2 SCT
13:59 83.6 °F /  28.7 °C 58.0 °F /  14.4 °C 30.12in /  1019.9hPa South 3.5mph /  5.6km/h 3.5mph /  5.6km/h 42% 0.00in /  0mm WeatherDisplay:10.37 W/m2 SCT
14:04 84.3 °F /  29.1 °C 60.0 °F /  15.6 °C 30.12in /  1019.9hPa SSE 8.1mph /  13km/h 8.1mph /  13km/h 44% 0.00in /  0mm WeatherDisplay:10.37 W/m2 SCT
14:09 84.6 °F /  29.2 °C 60.9 °F /  16.1 °C 30.11in /  1019.5hPa SE 5.0mph /  8km/h 5.0mph /  8km/h 45% 0.00in /  0mm WeatherDisplay:10.37 W/m2 SCT
14:14 84.8 °F /  29.3 °C 61.1 °F /  16.2 °C 30.11in /  1019.5hPa WSW 6.9mph /  11.1km/h 6.9mph /  11.1km/h 45% 0.00in /  0mm WeatherDisplay:10.37 W/m2 SCT
14:19 84.8 °F /  29.3 °C 59.8 °F /  15.4 °C 30.11in /  1019.5hPa West 4.6mph /  7.4km/h 4.6mph /  7.4km/h 43% 0.00in /  0mm WeatherDisplay:10.37 W/m2 SCT
14:24 85.0 °F /  29.4 °C 60.0 °F /  15.6 °C 30.11in /  1019.5hPa SW 6.0mph /  9.7km/h 6.0mph /  9.7km/h 43% 0.00in /  0mm WeatherDisplay:10.37 W/m2 SCT
14:29 84.9 °F /  29.4 °C 60.5 °F /  15.8 °C 30.11in /  1019.5hPa South 6.9mph /  11.1km/h 6.9mph /  11.1km/h 44% 0.00in /  0mm WeatherDisplay:10.37 W/m2 SCT
14:34 84.5 °F /  29.2 °C 60.2 °F /  15.7 °C 30.11in /  1019.5hPa WSW 3.5mph /  5.6km/h 3.5mph /  5.6km/h 44% 0.00in /  0mm WeatherDisplay:10.37 W/m2 SCT
14:39 84.3 °F /  29.1 °C 58.7 °F /  14.8 °C 30.11in /  1019.5hPa SW 3.5mph /  5.6km/h 3.5mph /  5.6km/h 42% 0.00in /  0mm WeatherDisplay:10.37 W/m2 SCT
14:44 84.9 °F /  29.4 °C 59.9 °F /  15.5 °C 30.11in /  1019.5hPa SSW 4.0mph /  6.4km/h 4.0mph /  6.4km/h 43% 0.00in /  0mm WeatherDisplay:10.37 W/m2 CLR
14:49 84.6 °F /  29.2 °C 58.9 °F /  14.9 °C 30.10in /  1019.2hPa SW 3.5mph /  5.6km/h 3.5mph /  5.6km/h 42% 0.00in /  0mm WeatherDisplay:10.37 W/m2 CLR
14:54 84.7 °F /  29.3 °C 59.7 °F /  15.4 °C 30.10in /  1019.2hPa West 3.5mph /  5.6km/h 3.5mph /  5.6km/h 43% 0.00in /  0mm WeatherDisplay:10.37 W/m2 CLR
14:59 85.4 °F /  29.7 °C 59.0 °F /  15 °C 30.10in /  1019.2hPa SW 4.6mph /  7.4km/h 4.6mph /  7.4km/h 41% 0.00in /  0mm WeatherDisplay:10.37 W/m2 CLR
15:04 85.3 °F /  29.6 °C 60.2 °F /  15.7 °C 30.10in /  1019.2hPa West 5.8mph /  9.3km/h 5.8mph /  9.3km/h 43% 0.00in /  0mm WeatherDisplay:10.37 W/m2 CLR
15:09 85.1 °F /  29.5 °C 57.3 °F /  14.1 °C 30.10in /  1019.2hPa West 5.8mph /  9.3km/h 5.8mph /  9.3km/h 39% 0.00in /  0mm WeatherDisplay:10.37 W/m2 CLR
15:14 84.9 °F /  29.4 °C 57.1 °F /  13.9 °C 30.10in /  1019.2hPa WNW 5.8mph /  9.3km/h 5.8mph /  9.3km/h 39% 0.00in /  0mm WeatherDisplay:10.37 W/m2 CLR
15:19 85.2 °F /  29.6 °C 56.0 °F /  13.3 °C 30.10in /  1019.2hPa SSW 3.5mph /  5.6km/h 3.5mph /  5.6km/h 37% 0.00in /  0mm WeatherDisplay:10.37 W/m2 CLR
15:24 85.3 °F /  29.6 °C 58.2 °F /  14.6 °C 30.10in /  1019.2hPa West 6.9mph /  11.1km/h 6.9mph /  11.1km/h 40% 0.00in /  0mm WeatherDisplay:10.37 W/m2 CLR
15:29 85.4 °F /  29.7 °C 56.1 °F /  13.4 °C 30.10in /  1019.2hPa NW 4.6mph /  7.4km/h 4.6mph /  7.4km/h 37% 0.00in /  0mm WeatherDisplay:10.37 W/m2 CLR
15:34 85.0 °F /  29.4 °C 55.8 °F /  13.2 °C 30.10in /  1019.2hPa NE 4.6mph /  7.4km/h 4.6mph /  7.4km/h 37% 0.00in /  0mm WeatherDisplay:10.37 W/m2 CLR
15:39 85.4 °F /  29.7 °C 56.9 °F /  13.8 °C 30.09in /  1018.8hPa East 3.5mph /  5.6km/h 3.5mph /  5.6km/h 38% 0.00in /  0mm WeatherDisplay:10.37 W/m2 CLR
15:44 86.8 °F /  30.4 °C 58.1 °F /  14.5 °C 30.10in /  1019.2hPa NNE 3.5mph /  5.6km/h 3.5mph /  5.6km/h 38% 0.00in /  0mm WeatherDisplay:10.37 W/m2 CLR
15:49 86.7 °F /  30.4 °C 58.7 °F /  14.8 °C 30.09in /  1018.8hPa West 5.8mph /  9.3km/h 5.8mph /  9.3km/h 39% 0.00in /  0mm WeatherDisplay:10.37 W/m2 CLR
15:54 85.9 °F /  29.9 °C 58.0 °F /  14.4 °C 30.09in /  1018.8hPa SSW 6.9mph /  11.1km/h 6.9mph /  11.1km/h 39% 0.00in /  0mm WeatherDisplay:10.37 W/m2 CLR
15:59 86.1 °F /  30.1 °C 58.9 °F /  14.9 °C 30.09in /  1018.8hPa SW 3.5mph /  5.6km/h 3.5mph /  5.6km/h 40% 0.00in /  0mm WeatherDisplay:10.37 W/m2 CLR
16:04 86.9 °F /  30.5 °C 58.2 °F /  14.6 °C 30.09in /  1018.8hPa SSW 5.0mph /  8km/h 5.0mph /  8km/h 38% 0.00in /  0mm WeatherDisplay:10.37 W/m2 CLR
16:09 87.3 °F /  30.7 °C 57.8 °F /  14.3 °C 30.09in /  1018.8hPa South 3.5mph /  5.6km/h 3.5mph /  5.6km/h 37% 0.00in /  0mm WeatherDisplay:10.37 W/m2 CLR
16:14 88.0 °F /  31.1 °C 58.4 °F /  14.7 °C 30.08in /  1018.5hPa SE 3.5mph /  5.6km/h 3.5mph /  5.6km/h 37% 0.00in /  0mm WeatherDisplay:10.37 W/m2 CLR
16:19 88.1 °F /  31.2 °C 59.3 °F /  15.2 °C 30.09in /  1018.8hPa SSW 4.0mph /  6.4km/h 4.0mph /  6.4km/h 38% 0.00in /  0mm WeatherDisplay:10.37 W/m2 CLR
16:24 87.6 °F /  30.9 °C 57.3 °F /  14.1 °C 30.08in /  1018.5hPa West 6.0mph /  9.7km/h 6.0mph /  9.7km/h 36% 0.00in /  0mm WeatherDisplay:10.37 W/m2 CLR
16:29 86.7 °F /  30.4 °C 57.3 °F /  14.1 °C 30.08in /  1018.5hPa SSW 5.8mph /  9.3km/h 5.8mph /  9.3km/h 37% 0.00in /  0mm WeatherDisplay:10.37 W/m2 CLR
16:34 86.9 °F /  30.5 °C 58.2 °F /  14.6 °C 30.08in /  1018.5hPa SW 5.8mph /  9.3km/h 5.8mph /  9.3km/h 38% 0.00in /  0mm WeatherDisplay:10.37 W/m2 CLR
16:39 86.9 °F /  30.5 °C 58.9 °F /  14.9 °C 30.08in /  1018.5hPa SSE 4.6mph /  7.4km/h 4.6mph /  7.4km/h 39% 0.00in /  0mm WeatherDisplay:10.37 W/m2 CLR
16:44 87.1 °F /  30.6 °C 57.6 °F /  14.2 °C 30.08in /  1018.5hPa SW 4.6mph /  7.4km/h 4.6mph /  7.4km/h 37% 0.00in /  0mm WeatherDisplay:10.37 W/m2 CLR
16:49 87.2 °F /  30.7 °C 57.7 °F /  14.3 °C 30.08in /  1018.5hPa South 2.3mph /  3.7km/h 2.3mph /  3.7km/h 37% 0.00in /  0mm WeatherDisplay:10.37 W/m2 CLR
16:54 87.3 °F /  30.7 °C 57.0 °F /  13.9 °C 30.07in /  1018.2hPa North 4.0mph /  6.4km/h 4.0mph /  6.4km/h 36% 0.00in /  0mm WeatherDisplay:10.37 W/m2 CLR
16:59 86.8 °F /  30.4 °C 56.6 °F /  13.7 °C 30.07in /  1018.2hPa NNW 6.9mph /  11.1km/h 6.9mph /  11.1km/h 36% 0.00in /  0mm WeatherDisplay:10.37 W/m2 CLR
17:04 86.8 °F /  30.4 °C 55.0 °F /  12.8 °C 30.07in /  1018.2hPa WSW 4.0mph /  6.4km/h 4.0mph /  6.4km/h 34% 0.00in /  0mm WeatherDisplay:10.37 W/m2 CLR
17:09 87.0 °F /  30.6 °C 51.8 °F /  11 °C 30.07in /  1018.2hPa North 3.5mph /  5.6km/h 3.5mph /  5.6km/h 30% 0.00in /  0mm WeatherDisplay:10.37 W/m2 CLR
17:14 87.4 °F /  30.8 °C 54.7 °F /  12.6 °C 30.07in /  1018.2hPa SE 2.3mph /  3.7km/h 2.3mph /  3.7km/h 33% 0.00in /  0mm WeatherDisplay:10.37 W/m2 CLR
17:19 87.6 °F /  30.9 °C 57.3 °F /  14.1 °C 30.07in /  1018.2hPa NW 5.8mph /  9.3km/h 5.8mph /  9.3km/h 36% 0.00in /  0mm WeatherDisplay:10.37 W/m2 CLR
17:24 87.2 °F /  30.7 °C 55.4 °F /  13 °C 30.07in /  1018.2hPa SW 3.5mph /  5.6km/h 3.5mph /  5.6km/h 34% 0.00in /  0mm WeatherDisplay:10.37 W/m2 CLR
17:29 87.3 °F /  30.7 °C 56.3 °F /  13.5 °C 30.06in /  1017.8hPa WNW 3.5mph /  5.6km/h 3.5mph /  5.6km/h 35% 0.00in /  0mm WeatherDisplay:10.37 W/m2 CLR
17:34 87.3 °F /  30.7 °C 57.0 °F /  13.9 °C 30.06in /  1017.8hPa SSW 3.5mph /  5.6km/h 3.5mph /  5.6km/h 36% 0.00in /  0mm WeatherDisplay:10.37 W/m2 CLR
17:39 87.1 °F /  30.6 °C 56.1 °F /  13.4 °C 30.07in /  1018.2hPa West 3.5mph /  5.6km/h 3.5mph /  5.6km/h 35% 0.00in /  0mm WeatherDisplay:10.37 W/m2 CLR
17:44 87.2 °F /  30.7 °C 55.4 °F /  13 °C 30.07in /  1018.2hPa West 2.3mph /  3.7km/h 2.3mph /  3.7km/h 34% 0.00in /  0mm WeatherDisplay:10.37 W/m2 CLR
17:49 87.0 °F /  30.6 °C 55.2 °F /  12.9 °C 30.06in /  1017.8hPa West 3.5mph /  5.6km/h 3.5mph /  5.6km/h 34% 0.00in /  0mm WeatherDisplay:10.37 W/m2 CLR
17:54 87.3 °F /  30.7 °C 57.0 °F /  13.9 °C 30.06in /  1017.8hPa West 3.5mph /  5.6km/h 3.5mph /  5.6km/h 36% 0.00in /  0mm WeatherDisplay:10.37 W/m2 CLR
17:59 87.1 °F /  30.6 °C 56.9 °F /  13.8 °C 30.07in /  1018.2hPa SW 3.5mph /  5.6km/h 3.5mph /  5.6km/h 36% 0.00in /  0mm WeatherDisplay:10.37 W/m2 CLR
18:04 86.7 °F /  30.4 °C 56.5 °F /  13.6 °C 30.06in /  1017.8hPa SW 3.5mph /  5.6km/h 3.5mph /  5.6km/h 36% 0.00in /  0mm WeatherDisplay:10.37 W/m2 CLR
18:09 86.3 °F /  30.2 °C 56.9 °F /  13.8 °C 30.06in /  1017.8hPa North 2.0mph /  3.2km/h 2.0mph /  3.2km/h 37% 0.00in /  0mm WeatherDisplay:10.37 W/m2 CLR
18:14 86.1 °F /  30.1 °C 57.5 °F /  14.2 °C 30.06in /  1017.8hPa North 3.5mph /  5.6km/h 3.5mph /  5.6km/h 38% 0.00in /  0mm WeatherDisplay:10.37 W/m2 CLR
18:19 85.6 °F /  29.8 °C 57.0 °F /  13.9 °C 30.06in /  1017.8hPa North 3.5mph /  5.6km/h 3.5mph /  5.6km/h 38% 0.00in /  0mm WeatherDisplay:10.37 W/m2 CLR
18:24 85.2 °F /  29.6 °C 56.7 °F /  13.7 °C 30.06in /  1017.8hPa North 3.5mph /  5.6km/h 3.5mph /  5.6km/h 38% 0.00in /  0mm WeatherDisplay:10.37 W/m2 CLR
18:29 84.7 °F /  29.3 °C 57.0 °F /  13.9 °C 30.06in /  1017.8hPa North 3.5mph /  5.6km/h 3.5mph /  5.6km/h 39% 0.00in /  0mm WeatherDisplay:10.37 W/m2 CLR
18:34 84.3 °F /  29.1 °C 56.6 °F /  13.7 °C 30.06in /  1017.8hPa WNW 2.3mph /  3.7km/h 2.3mph /  3.7km/h 39% 0.00in /  0mm WeatherDisplay:10.37 W/m2 CLR
18:39 84.1 °F /  28.9 °C 56.4 °F /  13.6 °C 30.07in /  1018.2hPa WNW 2.3mph /  3.7km/h 2.3mph /  3.7km/h 39% 0.00in /  0mm WeatherDisplay:10.37 W/m2 CLR
18:44 84.0 °F /  28.9 °C 57.0 °F /  13.9 °C 30.07in /  1018.2hPa WNW 2.0mph /  3.2km/h 2.0mph /  3.2km/h 40% 0.00in /  0mm WeatherDisplay:10.37 W/m2 CLR
18:49 83.8 °F /  28.8 °C 58.2 °F /  14.6 °C 30.06in /  1017.8hPa North 2.3mph /  3.7km/h 2.3mph /  3.7km/h 42% 0.00in /  0mm WeatherDisplay:10.37 W/m2 CLR
18:54 83.7 °F /  28.7 °C 57.5 °F /  14.2 °C 30.06in /  1017.8hPa North 2.3mph /  3.7km/h 2.3mph /  3.7km/h 41% 0.00in /  0mm WeatherDisplay:10.37 W/m2 CLR
18:59 83.5 °F /  28.6 °C 57.3 °F /  14.1 °C 30.06in /  1017.8hPa North 2.3mph /  3.7km/h 2.3mph /  3.7km/h 41% 0.00in /  0mm WeatherDisplay:10.37 W/m2 CLR
19:04 83.4 °F /  28.6 °C 58.5 °F /  14.7 °C 30.07in /  1018.2hPa North 2.3mph /  3.7km/h 2.3mph /  3.7km/h 43% 0.00in /  0mm WeatherDisplay:10.37 W/m2 CLR
19:09 83.3 °F /  28.5 °C 58.4 °F /  14.7 °C 30.07in /  1018.2hPa North 3.5mph /  5.6km/h 3.5mph /  5.6km/h 43% 0.00in /  0mm WeatherDisplay:10.37 W/m2 CLR
19:14 83.2 °F /  28.4 °C 60.2 °F /  15.7 °C 30.07in /  1018.2hPa North 1.2mph /  1.9km/h 1.2mph /  1.9km/h 46% 0.00in /  0mm WeatherDisplay:10.37 W/m2 CLR
19:19 83.0 °F /  28.3 °C 58.8 °F /  14.9 °C 30.07in /  1018.2hPa North 1.2mph /  1.9km/h 1.2mph /  1.9km/h 44% 0.00in /  0mm WeatherDisplay:10.37 W/m2 CLR
19:24 82.9 °F /  28.3 °C 58.1 °F /  14.5 °C 30.07in /  1018.2hPa North 1.2mph /  1.9km/h 1.2mph /  1.9km/h 43% 0.00in /  0mm WeatherDisplay:10.37 W/m2 CLR
19:29 82.8 °F /  28.2 °C 59.3 °F /  15.2 °C 30.07in /  1018.2hPa North 2.3mph /  3.7km/h 2.3mph /  3.7km/h 45% 0.00in /  0mm WeatherDisplay:10.37 W/m2 CLR
19:34 82.7 °F /  28.2 °C 59.2 °F /  15.1 °C 30.08in /  1018.5hPa North 1.2mph /  1.9km/h 1.2mph /  1.9km/h 45% 0.00in /  0mm WeatherDisplay:10.37 W/m2 CLR
19:39 82.5 °F /  28.1 °C 59.0 °F /  15 °C 30.08in /  1018.5hPa North 1.2mph /  1.9km/h 1.2mph /  1.9km/h 45% 0.00in /  0mm WeatherDisplay:10.37 W/m2 CLR
19:40 82.5 °F /  28.1 °C 59.0 °F /  15 °C 30.08in /  1018.5hPa North 1.2mph /  1.9km/h 1.2mph /  1.9km/h 45% 0.00in /  0mm WeatherDisplay:10.37 W/m2 CLR
19:45 82.4 °F /  28 °C 59.5 °F /  15.3 °C 30.08in /  1018.5hPa North 1.2mph /  1.9km/h 1.2mph /  1.9km/h 46% 0.00in /  0mm WeatherDisplay:10.37 W/m2 CLR
19:50 82.2 °F /  27.9 °C 60.5 °F /  15.8 °C 30.08in /  1018.5hPa Calm     48% 0.00in /  0mm WeatherDisplay:10.37 W/m2 CLR
19:55 82.1 °F /  27.8 °C 61.6 °F /  16.4 °C 30.08in /  1018.5hPa Calm     50% 0.00in /  0mm WeatherDisplay:10.37 W/m2 CLR
20:00 81.8 °F /  27.7 °C 61.9 °F /  16.6 °C 30.08in /  1018.5hPa Calm     51% 0.00in /  0mm WeatherDisplay:10.37 W/m2 CLR
20:05 81.5 °F /  27.5 °C 63.7 °F /  17.6 °C 30.08in /  1018.5hPa North 1.2mph /  1.9km/h   55% 0.00in /  0mm WeatherDisplay:10.37 W/m2 CLR
20:10 81.3 °F /  27.4 °C 64.1 °F /  17.8 °C 30.08in /  1018.5hPa Calm     56% 0.00in /  0mm WeatherDisplay:10.37 W/m2 CLR
20:15 81.1 °F /  27.3 °C 63.4 °F /  17.4 °C 30.08in /  1018.5hPa Calm     55% 0.00in /  0mm WeatherDisplay:10.37 W/m2 CLR
20:20 80.9 °F /  27.2 °C 63.7 °F /  17.6 °C 30.08in /  1018.5hPa North 1.2mph /  1.9km/h 1.2mph /  1.9km/h 56% 0.00in /  0mm WeatherDisplay:10.37 W/m2 CLR
20:25 80.4 °F /  26.9 °C 63.2 °F /  17.3 °C 30.08in /  1018.5hPa Calm     56% 0.00in /  0mm WeatherDisplay:10.37 W/m2 CLR
20:30 79.9 °F /  26.6 °C 62.8 °F /  17.1 °C 30.08in /  1018.5hPa Calm     56% 0.00in /  0mm WeatherDisplay:10.37 W/m2 CLR
20:35 79.4 °F /  26.3 °C 63.8 °F /  17.7 °C 30.08in /  1018.5hPa Calm     59% 0.00in /  0mm WeatherDisplay:10.37 W/m2 CLR
20:40 78.8 °F /  26 °C 64.2 °F /  17.9 °C 30.08in /  1018.5hPa Calm     61% 0.00in /  0mm WeatherDisplay:10.37 W/m2 CLR
20:45 77.7 °F /  25.4 °C 64.1 °F /  17.8 °C 30.09in /  1018.8hPa North 1.2mph /  1.9km/h 1.2mph /  1.9km/h 63% 0.00in /  0mm WeatherDisplay:10.37 W/m2 CLR
20:50 76.7 °F /  24.8 °C 64.4 °F /  18 °C 30.09in /  1018.8hPa North 1.2mph /  1.9km/h   66% 0.00in /  0mm WeatherDisplay:10.37 W/m2 CLR
20:55 76.2 °F /  24.6 °C 64.4 °F /  18 °C 30.09in /  1018.8hPa Calm     67% 0.00in /  0mm WeatherDisplay:10.37 W/m2 CLR
21:00 75.7 °F /  24.3 °C 64.8 °F /  18.2 °C 30.09in /  1018.8hPa North 1.2mph /  1.9km/h   69% 0.00in /  0mm WeatherDisplay:10.37 W/m2 CLR
21:05 75.2 °F /  24 °C 64.7 °F /  18.2 °C 30.09in /  1018.8hPa Calm     70% 0.00in /  0mm WeatherDisplay:10.37 W/m2 CLR
21:10 74.7 °F /  23.7 °C 64.6 °F /  18.1 °C 30.09in /  1018.8hPa Calm     71% 0.00in /  0mm WeatherDisplay:10.37 W/m2 CLR
21:15 74.1 °F /  23.4 °C 64.9 °F /  18.3 °C 30.09in /  1018.8hPa North 1.2mph /  1.9km/h 1.2mph /  1.9km/h 73% 0.00in /  0mm WeatherDisplay:10.37 W/m2 CLR
21:20 73.3 °F /  22.9 °C 64.5 °F /  18.1 °C 30.09in /  1018.8hPa North 1.0mph /  1.6km/h 1.0mph /  1.6km/h 74% 0.00in /  0mm WeatherDisplay:10.37 W/m2 CLR
21:25 72.6 °F /  22.6 °C 63.4 °F /  17.4 °C 30.09in /  1018.8hPa North 1.2mph /  1.9km/h 1.2mph /  1.9km/h 73% 0.00in /  0mm WeatherDisplay:10.37 W/m2 CLR
21:30 72.2 °F /  22.3 °C 63.8 °F /  17.7 °C 30.09in /  1018.8hPa Calm     75% 0.00in /  0mm WeatherDisplay:10.37 W/m2 CLR
21:35 71.7 °F /  22.1 °C 63.3 °F /  17.4 °C 30.09in /  1018.8hPa Calm     75% 0.00in /  0mm WeatherDisplay:10.37 W/m2 CLR
21:40 71.3 °F /  21.8 °C 63.7 °F /  17.6 °C 30.09in /  1018.8hPa Calm     77% 0.00in /  0mm WeatherDisplay:10.37 W/m2 CLR
21:45 70.8 °F /  21.6 °C 63.9 °F /  17.7 °C 30.09in /  1018.8hPa North 1.2mph /  1.9km/h 1.2mph /  1.9km/h 79% 0.00in /  0mm WeatherDisplay:10.37 W/m2 CLR
21:50 70.4 °F /  21.3 °C 63.9 °F /  17.7 °C 30.10in /  1019.2hPa North 1.2mph /  1.9km/h 1.2mph /  1.9km/h 80% 0.00in /  0mm WeatherDisplay:10.37 W/m2 CLR
21:55 70.0 °F /  21.1 °C 63.9 °F /  17.7 °C 30.10in /  1019.2hPa North 1.2mph /  1.9km/h 1.2mph /  1.9km/h 81% 0.00in /  0mm WeatherDisplay:10.37 W/m2 CLR
22:00 69.5 °F /  20.8 °C 63.7 °F /  17.6 °C 30.10in /  1019.2hPa North 2.3mph /  3.7km/h 2.3mph /  3.7km/h 82% 0.00in /  0mm WeatherDisplay:10.37 W/m2 CLR
22:05 68.9 °F /  20.5 °C 63.1 °F /  17.3 °C 30.10in /  1019.2hPa Calm     82% 0.00in /  0mm WeatherDisplay:10.37 W/m2 CLR
22:10 68.6 °F /  20.3 °C 63.2 °F /  17.3 °C 30.09in /  1018.8hPa North 1.2mph /  1.9km/h   83% 0.00in /  0mm WeatherDisplay:10.37 W/m2 CLR
22:15 68.2 °F /  20.1 °C 62.8 °F /  17.1 °C 30.10in /  1019.2hPa Calm     83% 0.00in /  0mm WeatherDisplay:10.37 W/m2 CLR
22:20 68.0 °F /  20 °C 62.6 °F /  17 °C 30.10in /  1019.2hPa Calm     83% 0.00in /  0mm WeatherDisplay:10.37 W/m2 CLR
22:25 67.7 °F /  19.8 °C 62.3 °F /  16.8 °C 30.10in /  1019.2hPa North 1.2mph /  1.9km/h 1.2mph /  1.9km/h 83% 0.00in /  0mm WeatherDisplay:10.37 W/m2 CLR
22:30 67.6 °F /  19.8 °C 62.6 °F /  17 °C 30.10in /  1019.2hPa Calm     84% 0.00in /  0mm WeatherDisplay:10.37 W/m2 CLR
22:35 67.4 °F /  19.7 °C 62.4 °F /  16.9 °C 30.09in /  1018.8hPa Calm     84% 0.00in /  0mm WeatherDisplay:10.37 W/m2 CLR
22:40 67.2 °F /  19.6 °C 61.8 °F /  16.6 °C 30.09in /  1018.8hPa Calm     83% 0.00in /  0mm WeatherDisplay:10.37 W/m2 CLR
22:45 67.0 °F /  19.4 °C 61.6 °F /  16.4 °C 30.09in /  1018.8hPa Calm     83% 0.00in /  0mm WeatherDisplay:10.37 W/m2 CLR
22:50 66.8 °F /  19.3 °C 62.1 °F /  16.7 °C 30.09in /  1018.8hPa North 2.0mph /  3.2km/h 2.0mph /  3.2km/h 85% 0.00in /  0mm WeatherDisplay:10.37 W/m2 CLR
22:55 66.7 °F /  19.3 °C 62.0 °F /  16.7 °C 30.09in /  1018.8hPa North 1.2mph /  1.9km/h   85% 0.00in /  0mm WeatherDisplay:10.37 W/m2 CLR
23:00 66.5 °F /  19.2 °C 61.8 °F /  16.6 °C 30.10in /  1019.2hPa North 2.3mph /  3.7km/h 2.3mph /  3.7km/h 85% 0.00in /  0mm WeatherDisplay:10.37 W/m2 CLR
23:05 66.4 °F /  19.1 °C 61.7 °F /  16.5 °C 30.10in /  1019.2hPa North 2.0mph /  3.2km/h 2.0mph /  3.2km/h 85% 0.00in /  0mm WeatherDisplay:10.37 W/m2 CLR
23:10 66.4 °F /  19.1 °C 61.7 °F /  16.5 °C 30.10in /  1019.2hPa North 2.3mph /  3.7km/h 2.3mph /  3.7km/h 85% 0.00in /  0mm WeatherDisplay:10.37 W/m2 CLR
23:15 66.3 °F /  19.1 °C 61.6 °F /  16.4 °C 30.10in /  1019.2hPa North 1.2mph /  1.9km/h 1.2mph /  1.9km/h 85% 0.00in /  0mm WeatherDisplay:10.37 W/m2 CLR
23:20 66.2 °F /  19 °C 61.5 °F /  16.4 °C 30.10in /  1019.2hPa North 2.3mph /  3.7km/h   85% 0.00in /  0mm WeatherDisplay:10.37 W/m2 CLR
23:25 66.0 °F /  18.9 °C 61.3 °F /  16.3 °C 30.10in /  1019.2hPa Calm     85% 0.00in /  0mm WeatherDisplay:10.37 W/m2 CLR
23:30 65.8 °F /  18.8 °C 61.5 °F /  16.4 °C 30.10in /  1019.2hPa North 2.3mph /  3.7km/h 2.3mph /  3.7km/h 86% 0.00in /  0mm WeatherDisplay:10.37 W/m2 CLR
23:35 65.5 °F /  18.6 °C 61.2 °F /  16.2 °C 30.10in /  1019.2hPa North 2.3mph /  3.7km/h 2.3mph /  3.7km/h 86% 0.00in /  0mm WeatherDisplay:10.37 W/m2 CLR
23:40 65.2 °F /  18.4 °C 61.2 °F /  16.2 °C 30.10in /  1019.2hPa Calm     87% 0.00in /  0mm WeatherDisplay:10.37 W/m2 CLR
23:45 64.9 °F /  18.3 °C 60.9 °F /  16.1 °C 30.10in /  1019.2hPa Calm     87% 0.00in /  0mm WeatherDisplay:10.37 W/m2 CLR
23:50 64.7 °F /  18.2 °C 60.7 °F /  15.9 °C 30.10in /  1019.2hPa Calm     87% 0.00in /  0mm WeatherDisplay:10.37 W/m2 CLR
23:55 64.5 °F /  18.1 °C 60.8 °F /  16 °C 30.10in /  1019.2hPa Calm     88% 0.00in /  0mm WeatherDisplay:10.37 W/m2 CLR
Smyth Weather
Compliments of Weather Underground - 3 mb